TimeCDT,TemperatureF,Dew PointF,Humidity,Sea Level PressureIn,VisibilityMPH,Wind Direction,Wind SpeedMPH,Gust SpeedMPH,PrecipitationIn,Events,Conditions,WindDirDegrees,DateUTC
12:53 AM,55.0,54.0,96,29.72,6.0,East,3.5,-,N/A,,Clear,90,2012-10-17 05:53:00
1:53 AM,55.0,54.0,96,29.72,7.0,East,3.5,-,N/A,,Scattered Clouds,90,2012-10-17 06:53:00
2:05 AM,55.0,54.0,96,29.72,5.0,East,3.5,-,N/A,,Mostly Cloudy,80,2012-10-17 07:05:00
2:53 AM,57.9,55.9,93,29.70,7.0,East,4.6,-,N/A,,Overcast,100,2012-10-17 07:53:00
3:53 AM,57.9,55.9,93,29.69,6.0,ESE,3.5,-,N/A,,Overcast,110,2012-10-17 08:53:00
4:24 AM,57.9,55.9,93,29.68,6.0,ESE,4.6,-,N/A,,Overcast,110,2012-10-17 09:24:00
4:53 AM,59.0,57.0,93,29.68,6.0,East,3.5,-,N/A,,Overcast,100,2012-10-17 09:53:00
5:53 AM,61.0,57.9,90,29.67,6.0,SSW,4.6,-,N/A,,Overcast,200,2012-10-17 10:53:00
6:53 AM,61.0,59.0,93,29.65,7.0,South,3.5,-,N/A,,Overcast,180,2012-10-17 11:53:00
7:53 AM,61.0,59.0,93,29.65,6.0,SSE,5.8,-,N/A,,Overcast,150,2012-10-17 12:53:00
8:53 AM,62.1,59.0,90,29.62,7.0,Variable,4.6,-,N/A,,Overcast,0,2012-10-17 13:53:00
9:53 AM,64.0,60.1,87,29.61,9.0,Variable,4.6,-,N/A,,Overcast,0,2012-10-17 14:53:00
10:53 AM,66.0,62.1,87,29.60,10.0,South,8.1,-,N/A,,Overcast,190,2012-10-17 15:53:00
11:53 AM,68.0,63.0,84,29.58,10.0,SSW,9.2,-,N/A,,Overcast,200,2012-10-17 16:53:00
12:39 PM,70.0,64.0,81,29.58,7.0,SSW,5.8,-,N/A,,Overcast,210,2012-10-17 17:39:00
12:53 PM,70.0,64.0,81,29.57,7.0,South,4.6,-,N/A,,Overcast,190,2012-10-17 17:53:00
1:32 PM,75.0,64.9,71,29.55,9.0,Variable,6.9,-,N/A,,Mostly Cloudy,0,2012-10-17 18:32:00
1:53 PM,75.9,66.0,71,29.53,9.0,SSW,10.4,17.3,N/A,,Scattered Clouds,210,2012-10-17 18:53:00
2:53 PM,79.0,66.0,64,29.51,9.0,SW,9.2,-,N/A,,Mostly Cloudy,230,2012-10-17 19:53:00
3:53 PM,80.1,64.0,58,29.51,10.0,SW,10.4,-,N/A,,Overcast,230,2012-10-17 20:53:00
4:53 PM,79.0,66.0,64,29.52,10.0,WSW,4.6,-,N/A,,Overcast,250,2012-10-17 21:53:00
5:53 PM,78.1,64.9,64,29.51,10.0,SSW,5.8,-,N/A,,Partly Cloudy,210,2012-10-17 22:53:00
6:53 PM,73.0,66.0,79,29.54,10.0,Calm,Calm,-,N/A,,Clear,0,2012-10-17 23:53:00
7:53 PM,73.0,63.0,71,29.60,10.0,NW,5.8,-,N/A,,Clear,310,2012-10-18 00:53:00
8:53 PM,72.0,59.0,64,29.66,10.0,NNW,9.2,-,N/A,,Clear,330,2012-10-18 01:53:00
9:53 PM,70.0,55.0,59,29.70,10.0,NNW,9.2,18.4,N/A,,Clear,330,2012-10-18 02:53:00
10:53 PM,64.9,48.9,56,29.71,10.0,WNW,3.5,-,N/A,,Clear,300,2012-10-18 03:53:00
11:53 PM,55.0,50.0,83,29.71,10.0,ENE,4.6,-,N/A,,Clear,70,2012-10-18 04:53:00